Kapaa, HI

4:08 AM HST on August 27, 2016 (GMT -1000)
Queen's Acres | | Change Station

Elev 348 ft 22.07 °N, 159.36 °W | Updated 22 seconds ago

Partly Cloudy
Partly Cloudy
69.8 °F
Feels Like 69.8 °F
N
0.0
Wind Variable Wind from East
Gusts 0.0 mph

Today
High -- | Low -- °F
--% Chance of Precip.
Yesterday
High -- | Low -- °F
Precip. -- in
Pressure 29.99 in
Visibility 10.0 miles
Clouds Few 2700 ft
Few 3700 ft
Dew Point 69 °F
Humidity 97%
Rainfall 0.11 in
Snow Depth Not available.
6:19 AM 6:57 PM
Waning Crescent, 24% visible
METAR PHLI 271353Z 03011KT 10SM FEW027 FEW037 26/19 A3000 RMK AO2 SLP155 T02560194
Pressure 29.99 in
Visibility 10.0 miles
Clouds Few 2700 ft
Few 3700 ft
Dew Point 69 °F
Humidity 97%
Rainfall 0.11 in
Snow Depth Not available.
6:19 AM 6:57 PM
Waning Crescent, 24% visible
METAR PHLI 271353Z 03011KT 10SM FEW027 FEW037 26/19 A3000 RMK AO2 SLP155 T02560194

10-Day Weather Forecast

Almanac

Astronomy

Aug. 27, 2016 Rise Set
Actual Time
Civil Twilight
Nautical Twilight
Astronomical Twilight
Moon
Length of Visible Light
Length of Day
Tomorrow will be .
, % of the Moon is Illuminated

Today's Extremes

State Highs State Lows

Community

WunderPhotos

Upload Photos

1,935,340 photos uploaded!

WunderBlog® & News

Nearby

Air Quality

  Air Quality AQ Index Pollutant
Not available.

Snow Depth

Station Depth Elevation

Earthquake Activity

City Distance Mag. Time & Date
Minimum magnitude displayed is 2.5.

Coastal Water Temperatures

Place Temperature

Stations

Nearby Weather Stations

Station Location Temp. Windchill Dew Point Humidity Wind Precip. Elev Updated Type
                   

Watches & Warnings

There are currently no watches in effect.